Main page
METAR-TAF:

METAR-TAF

Airports :

Honningsvåg Airport. Valan

Honningsvåg, Norway

latitude: 71-01N, longitude: 025-59E, elevation: 1 m

Current weather observation

The report was made 42 minutes ago, at 17:20 UTC
Wind 7 kt from the Southwest, varying between South and West/Southwest
Temperature 25°C
Humidity 50%
Pressure 1011 hPa
Visibility 10 km or more
no clouds below 1500 m and no cumulonimbus

METAR: ENHV 231720Z 22007KT 180V240 CAVOK 25/14 Q1011

Time: 20:02 (18:02 UTC)

Forecast

The report was made 4 hours and 2 minutes ago, at 14:00 UTC
Forecast valid from 23 at 15 UTC to 23 at 22 UTC
Wind 9 kt from the South/Southwest
Visibility 10 km or more
no clouds below 1500 m and no cumulonimbus

TAF: ENHV 231400Z 2315/2322 20009KT CAVOK

Weather observations and forecasts of more than 4000 airports (METAR and TAF reports).

The available stations are represented by yellow and red dots on the map.

Hover mouse over dot to see the name of the station.

Then click to see weather observations and forecasts.

To change the map : click on the green buttons with a black cross to zoom in, on the green button with a dash to zoom out, or on the green arrows for adjacent maps.


METAR-TAF: